PWSweather.com
Personal Weather Stations
Station Observations
IMAZOWIE6
WarszawaPL

WarszawaPL

Lat: 52.27957, Lon: 21.05489

Elevation: 100

Station Type: WS1080

http://stacjapogody.waw.pl/

High Low Average
Temperature 36.1°F2.3°C 31.6°F-0.2°C 34.0°F1.1°C
Dew Point -169.2°F-111.8°C -169.6°F-112.0°C -169.4°F-111.9°C
Winds 1.4 mph 2.3 kmh Calm Calm Calm NCalm N
Wind Gusts 4.8 mph7.7 kmh -- 2.0 mph3.2 kmh
Humidity - - -
Pressure 29.84 in1010.5 mb 29.61 in1002.7 mb -
Precipitation 0.00 in0.0 mm - -
Hour Temp Dew Point Humidity Winds Wind Gusts Pressure Precip Precip Rate Daily Precip Total
12:04 AM 31.6°F-0.2°C -169.6°F-112.0°C - 1.4 mph N2.3 kmh N 3.4 mph5.5 kmh 29.61 in1002.7 mb 0.00 in0.0 mm 0.00 in0.0 mm 0.00 in0.0 mm
12:19 AM 31.8°F-0.1°C -169.6°F-112.0°C - 0.6 mph N1.0 kmh N 3.4 mph5.5 kmh 29.61 in1002.7 mb 0.00 in0.0 mm 0.00 in0.0 mm 0.00 in0.0 mm
12:35 AM 31.8°F-0.1°C -169.6°F-112.0°C - 1.4 mph N2.3 kmh N 3.4 mph5.5 kmh 29.61 in1002.7 mb 0.00 in0.0 mm 0.00 in0.0 mm 0.00 in0.0 mm
12:50 AM 32.0°F0.0°C -169.6°F-112.0°C - 1.4 mph N2.3 kmh N 4.8 mph7.7 kmh 29.61 in1002.7 mb 0.00 in0.0 mm 0.00 in0.0 mm 0.00 in0.0 mm
01:05 AM 32.0°F0.0°C -169.6°F-112.0°C - 1.4 mph N2.3 kmh N 3.4 mph5.5 kmh 29.61 in1002.7 mb 0.00 in0.0 mm 0.00 in0.0 mm 0.00 in0.0 mm
01:20 AM 32.2°F0.1°C -169.6°F-112.0°C - 0.6 mph N1.0 kmh N 3.4 mph5.5 kmh 29.62 in1003.0 mb 0.00 in0.0 mm 0.00 in0.0 mm 0.00 in0.0 mm
01:35 AM 32.2°F0.1°C -169.6°F-112.0°C - 0.6 mph N1.0 kmh N 3.4 mph5.5 kmh 29.61 in1002.7 mb 0.00 in0.0 mm 0.00 in0.0 mm 0.00 in0.0 mm
01:50 AM 32.2°F0.1°C -169.6°F-112.0°C - 1.4 mph N2.3 kmh N 4.0 mph6.4 kmh 29.61 in1002.7 mb 0.00 in0.0 mm 0.00 in0.0 mm 0.00 in0.0 mm
02:05 AM 32.4°F0.2°C -169.6°F-112.0°C - 1.4 mph N2.3 kmh N 4.8 mph7.7 kmh 29.62 in1003.0 mb 0.00 in0.0 mm 0.00 in0.0 mm 0.00 in0.0 mm
02:20 AM 32.5°F0.3°C -169.5°F-111.9°C - 0.6 mph N1.0 kmh N 3.4 mph5.5 kmh 29.62 in1003.0 mb 0.00 in0.0 mm 0.00 in0.0 mm 0.00 in0.0 mm
02:35 AM 32.5°F0.3°C -169.5°F-111.9°C - 1.4 mph N2.3 kmh N 4.0 mph6.4 kmh 29.62 in1003.0 mb 0.00 in0.0 mm 0.00 in0.0 mm 0.00 in0.0 mm
02:50 AM 32.7°F0.4°C -169.5°F-111.9°C - 0.6 mph N1.0 kmh N 2.8 mph4.5 kmh 29.62 in1003.0 mb 0.00 in0.0 mm 0.00 in0.0 mm 0.00 in0.0 mm
03:05 AM 32.7°F0.4°C -169.5°F-111.9°C - 1.4 mph N2.3 kmh N 4.0 mph6.4 kmh 29.62 in1003.0 mb 0.00 in0.0 mm 0.00 in0.0 mm 0.00 in0.0 mm
03:20 AM 32.9°F0.5°C -169.5°F-111.9°C - 0.6 mph N1.0 kmh N 3.4 mph5.5 kmh 29.62 in1003.0 mb 0.00 in0.0 mm 0.00 in0.0 mm 0.00 in0.0 mm
03:35 AM 32.9°F0.5°C -169.5°F-111.9°C - Calm Calm 2.0 mph3.2 kmh 29.62 in1003.0 mb 0.00 in0.0 mm 0.00 in0.0 mm 0.00 in0.0 mm
03:50 AM 33.1°F0.6°C -169.5°F-111.9°C - 1.4 mph N2.3 kmh N 3.4 mph5.5 kmh 29.62 in1003.0 mb 0.00 in0.0 mm 0.00 in0.0 mm 0.00 in0.0 mm
04:05 AM 32.9°F0.5°C -169.5°F-111.9°C - 0.6 mph N1.0 kmh N 2.8 mph4.5 kmh 29.62 in1003.0 mb 0.00 in0.0 mm 0.00 in0.0 mm 0.00 in0.0 mm
04:20 AM 33.1°F0.6°C -169.5°F-111.9°C - 0.6 mph N1.0 kmh N 2.8 mph4.5 kmh 29.62 in1003.0 mb 0.00 in0.0 mm 0.00 in0.0 mm 0.00 in0.0 mm
04:35 AM 33.1°F0.6°C -169.5°F-111.9°C - Calm Calm 0.6 mph1.0 kmh 29.62 in1003.0 mb 0.00 in0.0 mm 0.00 in0.0 mm 0.00 in0.0 mm
04:50 AM 33.1°F0.6°C -169.5°F-111.9°C - Calm Calm 1.4 mph2.3 kmh 29.62 in1003.0 mb 0.00 in0.0 mm 0.00 in0.0 mm 0.00 in0.0 mm
05:05 AM 33.4°F0.8°C -169.5°F-111.9°C - Calm Calm 1.4 mph2.3 kmh 29.62 in1003.0 mb 0.00 in0.0 mm 0.00 in0.0 mm 0.00 in0.0 mm
05:20 AM 33.4°F0.8°C -169.5°F-111.9°C - Calm Calm 0.6 mph1.0 kmh 29.62 in1003.0 mb 0.00 in0.0 mm 0.00 in0.0 mm 0.00 in0.0 mm
05:35 AM 33.6°F0.9°C -169.4°F-111.9°C - Calm Calm 2.0 mph3.2 kmh 29.62 in1003.0 mb 0.00 in0.0 mm 0.00 in0.0 mm 0.00 in0.0 mm
05:50 AM 33.8°F1.0°C -169.4°F-111.9°C - 0.6 mph N1.0 kmh N 2.8 mph4.5 kmh 29.63 in1003.4 mb 0.00 in0.0 mm 0.00 in0.0 mm 0.00 in0.0 mm
06:05 AM 34.0°F1.1°C -169.4°F-111.9°C - Calm Calm 1.4 mph2.3 kmh 29.63 in1003.4 mb 0.00 in0.0 mm 0.00 in0.0 mm 0.00 in0.0 mm
06:20 AM 33.8°F1.0°C -169.4°F-111.9°C - Calm Calm 0.6 mph1.0 kmh 29.63 in1003.4 mb 0.00 in0.0 mm 0.00 in0.0 mm 0.00 in0.0 mm
06:35 AM 34.2°F1.2°C -169.4°F-111.9°C - Calm Calm 0.6 mph1.0 kmh 29.63 in1003.4 mb 0.00 in0.0 mm 0.00 in0.0 mm 0.00 in0.0 mm
06:50 AM 34.0°F1.1°C -169.4°F-111.9°C - Calm Calm 2.0 mph3.2 kmh 29.63 in1003.4 mb 0.00 in0.0 mm 0.00 in0.0 mm 0.00 in0.0 mm
07:05 AM 34.2°F1.2°C -169.4°F-111.9°C - Calm Calm -- 29.63 in1003.4 mb 0.00 in0.0 mm 0.00 in0.0 mm 0.00 in0.0 mm
07:20 AM 34.5°F1.4°C -169.3°F-111.8°C - Calm Calm 0.6 mph1.0 kmh 29.63 in1003.4 mb 0.00 in0.0 mm 0.00 in0.0 mm 0.00 in0.0 mm
07:35 AM 34.5°F1.4°C -169.3°F-111.8°C - Calm Calm 0.6 mph1.0 kmh 29.64 in1003.7 mb 0.00 in0.0 mm 0.00 in0.0 mm 0.00 in0.0 mm
07:50 AM 34.7°F1.5°C -169.3°F-111.8°C - Calm Calm 0.6 mph1.0 kmh 29.64 in1003.7 mb 0.00 in0.0 mm 0.00 in0.0 mm 0.00 in0.0 mm
08:05 AM 34.9°F1.6°C -169.3°F-111.8°C - Calm Calm 0.6 mph1.0 kmh 29.64 in1003.7 mb 0.00 in0.0 mm 0.00 in0.0 mm 0.00 in0.0 mm
08:20 AM 34.7°F1.5°C -169.3°F-111.8°C - Calm Calm 1.4 mph2.3 kmh 29.64 in1003.7 mb 0.00 in0.0 mm 0.00 in0.0 mm 0.00 in0.0 mm
08:35 AM 34.9°F1.6°C -169.3°F-111.8°C - 0.6 mph N1.0 kmh N 2.8 mph4.5 kmh 29.64 in1003.7 mb 0.00 in0.0 mm 0.00 in0.0 mm 0.00 in0.0 mm
08:50 AM 34.9°F1.6°C -169.3°F-111.8°C - Calm Calm 2.0 mph3.2 kmh 29.64 in1003.7 mb 0.00 in0.0 mm 0.00 in0.0 mm 0.00 in0.0 mm
09:05 AM 35.1°F1.7°C -169.3°F-111.8°C - 0.6 mph N1.0 kmh N 3.4 mph5.5 kmh 29.65 in1004.1 mb 0.00 in0.0 mm 0.00 in0.0 mm 0.00 in0.0 mm
09:20 AM 35.1°F1.7°C -169.3°F-111.8°C - Calm Calm 2.8 mph4.5 kmh 29.65 in1004.1 mb 0.00 in0.0 mm 0.00 in0.0 mm 0.00 in0.0 mm
09:35 AM 35.4°F1.9°C -169.3°F-111.8°C - Calm Calm 2.0 mph3.2 kmh 29.65 in1004.1 mb 0.00 in0.0 mm 0.00 in0.0 mm 0.00 in0.0 mm
09:50 AM 35.6°F2.0°C -169.2°F-111.8°C - Calm Calm 0.6 mph1.0 kmh 29.65 in1004.1 mb 0.00 in0.0 mm 0.00 in0.0 mm 0.00 in0.0 mm
10:00 AM 35.6°F2.0°C -169.2°F-111.8°C - Calm Calm 0.6 mph1.0 kmh 29.65 in1004.1 mb 0.00 in0.0 mm 0.00 in0.0 mm 0.00 in0.0 mm
10:20 AM 35.6°F2.0°C -169.2°F-111.8°C - Calm Calm 1.4 mph2.3 kmh 29.66 in1004.4 mb 0.00 in0.0 mm 0.00 in0.0 mm 0.00 in0.0 mm
10:35 AM 35.8°F2.1°C -169.2°F-111.8°C - Calm Calm 2.0 mph3.2 kmh 29.66 in1004.4 mb 0.00 in0.0 mm 0.00 in0.0 mm 0.00 in0.0 mm
10:50 AM 35.8°F2.1°C -169.2°F-111.8°C - Calm Calm 1.4 mph2.3 kmh 29.66 in1004.4 mb 0.00 in0.0 mm 0.00 in0.0 mm 0.00 in0.0 mm
11:05 AM 36.0°F2.2°C -169.2°F-111.8°C - 0.6 mph N1.0 kmh N 2.0 mph3.2 kmh 29.66 in1004.4 mb 0.00 in0.0 mm 0.00 in0.0 mm 0.00 in0.0 mm
11:20 AM 35.8°F2.1°C -169.2°F-111.8°C - Calm Calm 1.4 mph2.3 kmh 29.66 in1004.4 mb 0.00 in0.0 mm 0.00 in0.0 mm 0.00 in0.0 mm
11:35 AM 36.0°F2.2°C -169.2°F-111.8°C - Calm Calm 1.4 mph2.3 kmh 29.66 in1004.4 mb 0.00 in0.0 mm 0.00 in0.0 mm 0.00 in0.0 mm
11:50 AM 36.0°F2.2°C -169.2°F-111.8°C - Calm Calm 0.6 mph1.0 kmh 29.66 in1004.4 mb 0.00 in0.0 mm 0.00 in0.0 mm 0.00 in0.0 mm
12:05 PM 36.1°F2.3°C -169.2°F-111.8°C - Calm Calm 2.8 mph4.5 kmh 29.66 in1004.4 mb 0.00 in0.0 mm 0.00 in0.0 mm 0.00 in0.0 mm
12:20 PM 36.1°F2.3°C -169.2°F-111.8°C - Calm Calm 4.0 mph6.4 kmh 29.66 in1004.4 mb 0.00 in0.0 mm 0.00 in0.0 mm 0.00 in0.0 mm
12:35 PM 36.1°F2.3°C -169.2°F-111.8°C - Calm Calm 1.4 mph2.3 kmh 29.67 in1004.7 mb 0.00 in0.0 mm 0.00 in0.0 mm 0.00 in0.0 mm
12:50 PM 36.0°F2.2°C -169.2°F-111.8°C - Calm Calm 0.6 mph1.0 kmh 29.67 in1004.7 mb 0.00 in0.0 mm 0.00 in0.0 mm 0.00 in0.0 mm
01:01 PM 36.0°F2.2°C -169.2°F-111.8°C - Calm Calm 0.6 mph1.0 kmh 29.67 in1004.7 mb 0.00 in0.0 mm 0.00 in0.0 mm 0.00 in0.0 mm
01:20 PM 35.6°F2.0°C -169.2°F-111.8°C - Calm Calm -- 29.67 in1004.7 mb 0.00 in0.0 mm 0.00 in0.0 mm 0.00 in0.0 mm
01:35 PM 35.8°F2.1°C -169.2°F-111.8°C - Calm Calm 0.6 mph1.0 kmh 29.67 in1004.7 mb 0.00 in0.0 mm 0.00 in0.0 mm 0.00 in0.0 mm
01:50 PM 36.1°F2.3°C -169.2°F-111.8°C - Calm Calm 0.6 mph1.0 kmh 29.67 in1004.7 mb 0.00 in0.0 mm 0.00 in0.0 mm 0.00 in0.0 mm
02:06 PM 36.1°F2.3°C -169.2°F-111.8°C - Calm Calm 1.4 mph2.3 kmh 29.68 in1005.1 mb 0.00 in0.0 mm 0.00 in0.0 mm 0.00 in0.0 mm
02:20 PM 36.0°F2.2°C -169.2°F-111.8°C - Calm Calm 0.6 mph1.0 kmh 29.68 in1005.1 mb 0.00 in0.0 mm 0.00 in0.0 mm 0.00 in0.0 mm
02:35 PM 35.8°F2.1°C -169.2°F-111.8°C - Calm Calm 1.4 mph2.3 kmh 29.69 in1005.4 mb 0.00 in0.0 mm 0.00 in0.0 mm 0.00 in0.0 mm
02:50 PM 35.4°F1.9°C -169.3°F-111.8°C - Calm Calm 0.6 mph1.0 kmh 29.69 in1005.4 mb 0.00 in0.0 mm 0.00 in0.0 mm 0.00 in0.0 mm
03:05 PM 35.2°F1.8°C -169.3°F-111.8°C - Calm Calm 2.0 mph3.2 kmh 29.70 in1005.8 mb 0.00 in0.0 mm 0.00 in0.0 mm 0.00 in0.0 mm
03:20 PM 35.1°F1.7°C -169.3°F-111.8°C - Calm Calm 0.6 mph1.0 kmh 29.70 in1005.8 mb 0.00 in0.0 mm 0.00 in0.0 mm 0.00 in0.0 mm
03:35 PM 35.1°F1.7°C -169.3°F-111.8°C - Calm Calm 0.6 mph1.0 kmh 29.70 in1005.8 mb 0.00 in0.0 mm 0.00 in0.0 mm 0.00 in0.0 mm
03:50 PM 34.7°F1.5°C -169.3°F-111.8°C - Calm Calm 0.6 mph1.0 kmh 29.70 in1005.8 mb 0.00 in0.0 mm 0.00 in0.0 mm 0.00 in0.0 mm
04:05 PM 34.5°F1.4°C -169.3°F-111.8°C - Calm Calm 1.4 mph2.3 kmh 29.71 in1006.1 mb 0.00 in0.0 mm 0.00 in0.0 mm 0.00 in0.0 mm
04:20 PM 34.3°F1.3°C -169.4°F-111.9°C - Calm Calm 1.4 mph2.3 kmh 29.71 in1006.1 mb 0.00 in0.0 mm 0.00 in0.0 mm 0.00 in0.0 mm
04:35 PM 34.0°F1.1°C -169.4°F-111.9°C - Calm Calm 0.6 mph1.0 kmh 29.72 in1006.4 mb 0.00 in0.0 mm 0.00 in0.0 mm 0.00 in0.0 mm
04:50 PM 34.0°F1.1°C -169.4°F-111.9°C - Calm Calm -- 29.72 in1006.4 mb 0.00 in0.0 mm 0.00 in0.0 mm 0.00 in0.0 mm
05:05 PM 33.6°F0.9°C -169.4°F-111.9°C - Calm Calm 2.0 mph3.2 kmh 29.73 in1006.8 mb 0.00 in0.0 mm 0.00 in0.0 mm 0.00 in0.0 mm
05:20 PM 33.4°F0.8°C -169.5°F-111.9°C - Calm Calm 2.0 mph3.2 kmh 29.73 in1006.8 mb 0.00 in0.0 mm 0.00 in0.0 mm 0.00 in0.0 mm
05:35 PM 33.4°F0.8°C -169.5°F-111.9°C - Calm Calm -- 29.73 in1006.8 mb 0.00 in0.0 mm 0.00 in0.0 mm 0.00 in0.0 mm
05:50 PM 33.6°F0.9°C -169.4°F-111.9°C - Calm Calm 0.6 mph1.0 kmh 29.74 in1007.1 mb 0.00 in0.0 mm 0.00 in0.0 mm 0.00 in0.0 mm
06:05 PM 33.6°F0.9°C -169.4°F-111.9°C - Calm Calm 0.6 mph1.0 kmh 29.74 in1007.1 mb 0.00 in0.0 mm 0.00 in0.0 mm 0.00 in0.0 mm
06:20 PM 33.6°F0.9°C -169.4°F-111.9°C - Calm Calm 0.6 mph1.0 kmh 29.74 in1007.1 mb 0.00 in0.0 mm 0.00 in0.0 mm 0.00 in0.0 mm
06:30 PM 33.6°F0.9°C -169.4°F-111.9°C - Calm Calm 0.6 mph1.0 kmh 29.74 in1007.1 mb 0.00 in0.0 mm 0.00 in0.0 mm 0.00 in0.0 mm
06:50 PM 33.4°F0.8°C -169.5°F-111.9°C - Calm Calm 0.6 mph1.0 kmh 29.75 in1007.5 mb 0.00 in0.0 mm 0.00 in0.0 mm 0.00 in0.0 mm
07:05 PM 33.6°F0.9°C -169.4°F-111.9°C - Calm Calm 2.8 mph4.5 kmh 29.76 in1007.8 mb 0.00 in0.0 mm 0.00 in0.0 mm 0.00 in0.0 mm
07:20 PM 33.6°F0.9°C -169.4°F-111.9°C - Calm Calm -- 29.76 in1007.8 mb 0.00 in0.0 mm 0.00 in0.0 mm 0.00 in0.0 mm
07:35 PM 33.6°F0.9°C -169.4°F-111.9°C - Calm Calm 3.4 mph5.5 kmh 29.76 in1007.8 mb 0.00 in0.0 mm 0.00 in0.0 mm 0.00 in0.0 mm
07:50 PM 33.4°F0.8°C -169.5°F-111.9°C - Calm Calm 2.0 mph3.2 kmh 29.76 in1007.8 mb 0.00 in0.0 mm 0.00 in0.0 mm 0.00 in0.0 mm
08:05 PM 33.4°F0.8°C -169.5°F-111.9°C - Calm Calm 2.0 mph3.2 kmh 29.77 in1008.1 mb 0.00 in0.0 mm 0.00 in0.0 mm 0.00 in0.0 mm
08:20 PM 33.4°F0.8°C -169.5°F-111.9°C - Calm Calm 0.6 mph1.0 kmh 29.78 in1008.5 mb 0.00 in0.0 mm 0.00 in0.0 mm 0.00 in0.0 mm
08:35 PM 33.6°F0.9°C -169.4°F-111.9°C - Calm Calm -- 29.78 in1008.5 mb 0.00 in0.0 mm 0.00 in0.0 mm 0.00 in0.0 mm
08:50 PM 33.3°F0.7°C -169.5°F-111.9°C - Calm Calm 0.6 mph1.0 kmh 29.78 in1008.5 mb 0.00 in0.0 mm 0.00 in0.0 mm 0.00 in0.0 mm
09:05 PM 33.1°F0.6°C -169.5°F-111.9°C - Calm Calm 1.4 mph2.3 kmh 29.78 in1008.5 mb 0.00 in0.0 mm 0.00 in0.0 mm 0.00 in0.0 mm
09:20 PM 33.3°F0.7°C -169.5°F-111.9°C - Calm Calm 0.6 mph1.0 kmh 29.79 in1008.8 mb 0.00 in0.0 mm 0.00 in0.0 mm 0.00 in0.0 mm
09:35 PM 33.3°F0.7°C -169.5°F-111.9°C - Calm Calm 1.4 mph2.3 kmh 29.80 in1009.1 mb 0.00 in0.0 mm 0.00 in0.0 mm 0.00 in0.0 mm
09:50 PM 33.1°F0.6°C -169.5°F-111.9°C - Calm Calm 0.6 mph1.0 kmh 29.81 in1009.5 mb 0.00 in0.0 mm 0.00 in0.0 mm 0.00 in0.0 mm
10:05 PM 33.1°F0.6°C -169.5°F-111.9°C - Calm Calm 0.6 mph1.0 kmh 29.81 in1009.5 mb 0.00 in0.0 mm 0.00 in0.0 mm 0.00 in0.0 mm
10:20 PM 33.1°F0.6°C -169.5°F-111.9°C - 0.6 mph N1.0 kmh N 2.8 mph4.5 kmh 29.81 in1009.5 mb 0.00 in0.0 mm 0.00 in0.0 mm 0.00 in0.0 mm
10:35 PM 32.9°F0.5°C -169.5°F-111.9°C - Calm Calm 2.0 mph3.2 kmh 29.82 in1009.8 mb 0.00 in0.0 mm 0.00 in0.0 mm 0.00 in0.0 mm
10:50 PM 32.9°F0.5°C -169.5°F-111.9°C - Calm Calm 0.6 mph1.0 kmh 29.83 in1010.2 mb 0.00 in0.0 mm 0.00 in0.0 mm 0.00 in0.0 mm
11:05 PM 32.7°F0.4°C -169.5°F-111.9°C - Calm Calm -- 29.83 in1010.2 mb 0.00 in0.0 mm 0.00 in0.0 mm 0.00 in0.0 mm
11:20 PM 32.9°F0.5°C -169.5°F-111.9°C - Calm Calm 0.6 mph1.0 kmh 29.84 in1010.5 mb 0.00 in0.0 mm 0.00 in0.0 mm 0.00 in0.0 mm
11:35 PM 32.9°F0.5°C -169.5°F-111.9°C - Calm Calm -- 29.84 in1010.5 mb 0.00 in0.0 mm 0.00 in0.0 mm 0.00 in0.0 mm
11:50 PM 32.9°F0.5°C -169.5°F-111.9°C - Calm Calm 0.6 mph1.0 kmh 29.84 in1010.5 mb 0.00 in0.0 mm 0.00 in0.0 mm 0.00 in0.0 mm